Time;durP1;ratioP1;P1;durP2;ratioP2;P2;SDS_P1;SDS_P2;PMS_P1;PMS_P2;Temp;Humidity;BMP_temperature;BMP_pressure;BME280_temperature;BME280_humidity;BME280_pressure;Samples;Min_cycle;Max_cycle;Signal;HPM_P1;HPM_P2
2022/01/24 00:00:50;;;;;;;;;35.00;30.75;;;;;4.49;64.29;102479.63;4959095;28;75564;-61
2022/01/24 00:03:15;;;;;;;;;40.25;32.50;;;;;4.48;64.29;102470.94;4960100;28;48728;-62
2022/01/24 00:05:41;;;;;;;;;32.75;28.25;;;;;4.44;64.34;102461.53;4959773;28;56989;-61
2022/01/24 00:08:07;;;;;;;;;37.25;27.50;;;;;4.41;64.60;102457.28;4960336;28;45467;-62
2022/01/24 00:10:35;;;;;;;;;35.25;25.75;;;;;4.38;64.33;102457.38;4958448;28;58795;-61
2022/01/24 00:18:28;;;;;;;;;38.25;29.00;;;;;4.25;64.84;102462.09;4960204;28;45424;-62
2022/01/24 00:29:05;;;;;;;;;35.50;27.00;;;;;4.06;64.91;102450.56;4958862;28;45525;-62
2022/01/24 00:31:30;;;;;;;;;35.25;23.75;;;;;4.02;64.88;102449.78;4958728;28;71452;-63
2022/01/24 00:33:55;;;;;;;;;34.50;24.50;;;;;3.98;65.34;102454.22;4959036;28;66003;-61
2022/01/24 00:36:21;;;;;;;;;41.50;31.00;;;;;3.93;65.29;102453.50;4959356;28;49742;-63
2022/01/24 00:38:46;;;;;;;;;31.75;25.25;;;;;3.90;65.35;102444.97;4958769;28;68138;-61
2022/01/24 00:41:15;;;;;;;;;43.75;29.75;;;;;3.85;65.40;102453.75;4958679;28;65216;-61
2022/01/24 00:46:28;;;;;;;;;38.75;28.75;;;;;3.78;65.68;102456.56;4958485;28;45357;-61
2022/01/24 00:54:42;;;;;;;;;28.50;22.00;;;;;3.71;65.48;102441.13;4959391;28;45791;-62
2022/01/24 00:56:49;;;;;;;;;37.25;26.75;;;;;3.69;65.77;102445.53;4959373;28;45379;-60
2022/01/24 00:59:15;;;;;;;;;38.50;31.00;;;;;3.66;65.83;102439.56;4959402;28;45376;-60
2022/01/24 01:01:40;;;;;;;;;29.50;23.25;;;;;3.61;65.88;102438.84;4958261;28;67876;-61
2022/01/24 01:04:05;;;;;;;;;40.75;27.25;;;;;3.56;65.80;102436.38;4958512;28;64303;-61
2022/01/24 01:06:31;;;;;;;;;32.50;24.00;;;;;3.51;66.00;102433.91;4958478;28;65825;-63
2022/01/24 01:19:52;;;;;;;;;39.75;28.25;;;;;3.35;66.15;102428.28;4958193;28;45261;-61
2022/01/24 01:22:17;;;;;;;;;43.25;26.00;;;;;3.34;66.46;102436.13;4957658;28;46233;-62
2022/01/24 01:24:50;;;;;;;;;35.50;28.00;;;;;3.33;66.38;102437.88;4958793;28;45294;-63
2022/01/24 01:27:20;;;;;;;;;32.00;26.25;;;;;3.31;66.16;102431.84;4957783;28;45365;-62
2022/01/24 01:29:56;;;;;;;;;36.25;30.00;;;;;3.30;66.35;102434.50;4957654;28;45416;-61
2022/01/24 01:56:04;;;;;;;;;41.25;29.50;;;;;3.04;66.61;102425.66;4977778;28;45272;-61
2022/01/24 01:58:29;;;;;;;;;33.25;25.25;;;;;3.01;66.42;102424.00;4977915;28;45441;-61
2022/01/24 02:00:56;;;;;;;;;30.75;29.00;;;;;2.97;66.44;102431.00;4959453;28;67483;-62
2022/01/24 02:03:23;;;;;;;;;35.50;26.00;;;;;2.96;66.64;102426.69;4977775;28;45484;-62
2022/01/24 02:05:48;;;;;;;;;37.00;28.75;;;;;2.94;66.59;102427.66;4977669;28;45400;-63
2022/01/24 02:08:15;;;;;;;;;37.75;31.75;;;;;2.91;66.79;102425.13;4959755;28;62559;-61
2022/01/24 02:10:42;;;;;;;;;34.25;21.00;;;;;2.91;66.73;102422.53;4944445;28;45379;-63
2022/01/24 02:13:07;;;;;;;;;36.75;28.75;;;;;2.90;66.77;102431.22;4960568;28;45395;-62
2022/01/24 02:21:04;;;;;;;;;34.25;27.75;;;;;2.86;66.85;102414.00;4945734;28;45412;-61
2022/01/24 02:25:51;;;;;;;;;36.25;28.50;;;;;2.83;67.46;102414.94;4977501;28;45713;-61
2022/01/24 02:28:19;;;;;;;;;31.50;25.25;;;;;2.82;67.77;102419.28;4977724;28;45227;-61
2022/01/24 02:31:04;;;;;;;;;38.75;28.25;;;;;2.81;67.64;102412.38;4960406;28;45323;-61
2022/01/24 02:33:29;;;;;;;;;34.25;27.00;;;;;2.82;67.98;102408.06;4959775;28;47633;-61
2022/01/24 02:35:55;;;;;;;;;37.00;25.50;;;;;2.82;68.04;102408.06;4977332;28;45282;-61
2022/01/24 02:49:26;;;;;;;;;40.25;27.25;;;;;2.87;68.06;102390.63;4977390;28;45490;-60
2022/01/24 02:52:02;;;;;;;;;39.75;30.50;;;;;2.90;68.06;102394.84;4959623;28;45386;-62
2022/01/24 02:54:29;;;;;;;;;31.50;27.50;;;;;2.90;68.15;102384.47;4977068;28;45288;-61
2022/01/24 02:56:55;;;;;;;;;29.25;26.50;;;;;2.89;68.10;102388.84;4977215;28;45930;-60
2022/01/24 02:59:20;;;;;;;;;39.50;29.50;;;;;2.90;67.89;102376.69;4977278;28;45480;-61
2022/01/24 03:01:45;;;;;;;;;39.75;28.00;;;;;2.89;67.96;102387.97;4977268;28;46001;-61
2022/01/24 03:04:11;;;;;;;;;42.50;31.75;;;;;2.89;67.87;102377.56;4943552;28;45493;-62
2022/01/24 03:06:37;;;;;;;;;33.75;29.25;;;;;2.89;67.52;102382.78;4976933;28;45547;-61
2022/01/24 03:09:05;;;;;;;;;34.00;25.50;;;;;2.88;67.69;102378.47;4958657;28;68341;-61
2022/01/24 03:11:54;;;;;;;;;33.25;25.50;;;;;2.88;67.70;102381.06;4977036;28;45199;-63
2022/01/24 03:14:17;;;;;;;;;36.00;30.75;;;;;2.84;67.49;102385.50;4976641;28;45294;-63
2022/01/24 03:16:42;;;;;;;;;35.50;30.75;;;;;2.80;67.50;102376.91;4976759;28;46882;-61
2022/01/24 03:19:08;;;;;;;;;39.50;29.75;;;;;2.77;67.37;102377.00;4958982;28;59358;-61
2022/01/24 03:21:33;;;;;;;;;36.00;29.00;;;;;2.74;67.16;102374.47;4976518;28;53747;-61
2022/01/24 03:23:58;;;;;;;;;33.00;27.75;;;;;2.72;67.44;102370.22;4975865;28;69883;-62
2022/01/24 03:26:24;;;;;;;;;42.75;29.00;;;;;2.69;66.89;102378.94;4958210;28;64749;-60
2022/01/24 03:28:49;;;;;;;;;35.50;27.50;;;;;2.65;67.06;102379.94;4976402;28;45320;-61
2022/01/24 03:31:15;;;;;;;;;31.00;29.25;;;;;2.60;67.01;102377.44;4942494;28;59887;-62
2022/01/24 03:33:40;;;;;;;;;27.75;22.25;;;;;2.58;67.27;102378.38;4975771;28;67973;-61
2022/01/24 03:36:05;;;;;;;;;38.75;31.25;;;;;2.56;67.08;102380.16;4975677;28;66699;-62
2022/01/24 03:38:31;;;;;;;;;32.00;27.50;;;;;2.51;67.50;102372.47;4959126;28;45340;-63
2022/01/24 03:40:56;;;;;;;;;37.50;26.75;;;;;2.49;67.50;102374.25;4976746;28;45250;-60
2022/01/24 03:43:22;;;;;;;;;43.75;30.00;;;;;2.47;67.33;102373.44;4942747;28;45304;-62
2022/01/24 03:46:08;;;;;;;;;30.75;28.75;;;;;2.45;67.42;102376.09;4975962;28;52390;-62
2022/01/24 03:48:44;;;;;;;;;36.75;25.50;;;;;2.41;67.75;102369.25;4976499;28;45303;-61
2022/01/24 03:51:10;;;;;;;;;42.75;31.00;;;;;2.40;67.37;102364.09;4960756;28;45276;-61
2022/01/24 03:53:36;;;;;;;;;38.50;29.75;;;;;2.39;67.50;102371.03;4976203;28;45369;-62
2022/01/24 03:56:01;;;;;;;;;41.75;30.25;;;;;2.39;67.50;102368.44;4958247;28;63154;-61
2022/01/24 03:58:27;;;;;;;;;34.75;27.25;;;;;2.38;67.74;102374.53;4943041;28;45381;-61
2022/01/24 04:00:52;;;;;;;;;44.00;28.00;;;;;2.36;67.98;102364.19;4958356;28;61674;-61
2022/01/24 04:03:17;;;;;;;;;34.25;24.50;;;;;2.35;67.85;102365.09;4976259;28;46459;-62
2022/01/24 04:05:43;;;;;;;;;48.00;30.25;;;;;2.34;67.93;102365.09;4975701;28;57742;-62
2022/01/24 04:08:08;;;;;;;;;34.25;29.25;;;;;2.35;68.01;102359.03;4975614;28;65518;-61
2022/01/24 04:10:41;;;;;;;;;41.25;32.50;;;;;2.32;67.95;102359.09;4976185;28;45232;-62
2022/01/24 04:13:20;;;;;;;;;35.75;27.00;;;;;2.30;68.15;102356.56;4959566;28;45395;-61
2022/01/24 04:15:58;;;;;;;;;34.50;27.25;;;;;2.28;68.28;102350.56;4960504;28;45379;-62
2022/01/24 04:18:31;;;;;;;;;29.75;24.75;;;;;2.28;68.18;102354.88;4961378;28;45449;-62
2022/01/24 04:23:43;;;;;;;;;35.50;28.00;;;;;2.25;68.04;102361.00;4979589;28;45850;-61
2022/01/24 04:26:09;;;;;;;;;31.50;24.00;;;;;2.25;68.28;102362.72;4979352;28;45438;-62
2022/01/24 04:28:34;;;;;;;;;38.50;29.50;;;;;2.23;68.19;102352.41;4979598;28;45329;-62
2022/01/24 04:30:59;;;;;;;;;30.75;25.25;;;;;2.23;68.08;102358.44;4961053;28;62976;-60
2022/01/24 04:33:25;;;;;;;;;32.50;26.00;;;;;2.21;68.27;102364.56;4978446;28;69163;-60
2022/01/24 04:35:50;;;;;;;;;33.25;23.25;;;;;2.19;68.05;102354.22;4978410;28;68329;-62
2022/01/24 04:38:17;;;;;;;;;40.75;31.00;;;;;2.17;68.23;102358.56;4978424;28;65350;-60
2022/01/24 04:40:42;;;;;;;;;41.75;28.25;;;;;2.14;68.17;102356.06;4961802;28;45588;-61
2022/01/24 04:56:38;;;;;;;;;35.00;25.25;;;;;2.05;68.02;102353.69;4979025;28;45240;-61
2022/01/24 04:59:04;;;;;;;;;36.50;27.75;;;;;2.05;68.14;102353.69;4979061;28;45377;-64
2022/01/24 05:01:29;;;;;;;;;30.25;25.75;;;;;2.04;68.33;102354.59;4978870;28;45251;-61
2022/01/24 05:03:54;;;;;;;;;38.25;28.75;;;;;2.05;68.45;102358.88;4977853;28;68904;-64
2022/01/24 05:06:20;;;;;;;;;32.00;25.00;;;;;2.04;68.17;102354.59;4977747;28;69473;-61
2022/01/24 05:08:45;;;;;;;;;39.75;25.25;;;;;2.02;68.47;102354.59;4977918;28;65813;-61
2022/01/24 05:11:15;;;;;;;;;39.25;29.25;;;;;2.01;68.90;102349.47;4978709;28;45687;-61
2022/01/24 05:24:31;;;;;;;;;38.50;30.00;;;;;1.93;68.48;102360.00;4978368;28;46062;-61
2022/01/24 05:26:57;;;;;;;;;43.00;27.50;;;;;1.90;68.60;102360.06;4960916;28;45739;-64
2022/01/24 05:29:22;;;;;;;;;33.50;27.25;;;;;1.88;68.56;102354.06;4977540;28;45457;-62
2022/01/24 05:31:47;;;;;;;;;39.00;25.75;;;;;1.86;68.91;102367.06;4960874;28;45322;-60
2022/01/24 05:34:13;;;;;;;;;38.00;25.25;;;;;1.83;68.75;102356.78;4978225;28;45468;-61
2022/01/24 05:36:38;;;;;;;;;28.25;24.25;;;;;1.83;68.94;102354.19;4977316;28;73285;-62
2022/01/24 05:39:04;;;;;;;;;32.50;25.75;;;;;1.81;68.81;102355.94;4977411;28;66178;-60
2022/01/24 05:41:29;;;;;;;;;34.25;31.25;;;;;1.81;68.92;102345.59;4978410;28;45632;-61
2022/01/24 05:43:54;;;;;;;;;31.75;25.75;;;;;1.82;68.78;102349.03;4977685;28;61323;-61
2022/01/24 05:46:20;;;;;;;;;35.25;28.00;;;;;1.80;68.77;102349.06;4977261;28;67590;-61
2022/01/24 05:48:45;;;;;;;;;33.00;26.75;;;;;1.80;68.57;102353.41;4978273;28;45808;-61
2022/01/24 05:51:10;;;;;;;;;31.50;25.75;;;;;1.78;68.42;102351.69;4977948;28;48663;-62
2022/01/24 05:53:36;;;;;;;;;49.50;36.00;;;;;1.78;68.65;102348.25;4976738;28;74413;-60
2022/01/24 05:56:01;;;;;;;;;40.00;31.25;;;;;1.76;68.85;102356.06;4959762;28;69136;-64
2022/01/24 05:58:27;;;;;;;;;40.00;32.00;;;;;1.75;68.60;102348.31;4978115;28;45395;-62
2022/01/24 06:00:52;;;;;;;;;39.50;28.75;;;;;1.73;68.92;102348.34;4977131;28;67222;-62
2022/01/24 06:03:17;;;;;;;;;28.50;19.00;;;;;1.75;69.13;102350.91;4977801;28;45303;-62
2022/01/24 06:05:43;;;;;;;;;33.25;25.75;;;;;1.74;68.81;102355.25;4977873;28;45308;-61
2022/01/24 06:08:08;;;;;;;;;38.00;29.25;;;;;1.75;69.15;102356.09;4977733;28;45231;-62
2022/01/24 06:10:37;;;;;;;;;33.00;29.25;;;;;1.74;68.79;102356.97;4944407;28;45422;-63
2022/01/24 06:13:02;;;;;;;;;37.50;32.00;;;;;1.74;69.10;102356.97;4960401;28;45329;-62
2022/01/24 06:15:27;;;;;;;;;34.25;26.00;;;;;1.73;69.11;102360.44;4977155;28;45314;-62
2022/01/24 06:17:53;;;;;;;;;39.75;30.50;;;;;1.72;69.10;102361.34;4976952;28;59823;-60
2022/01/24 06:20:18;;;;;;;;;39.00;31.50;;;;;1.69;69.08;102366.56;4977064;28;60416;-62
2022/01/24 06:22:44;;;;;;;;;39.00;26.75;;;;;1.68;69.10;102364.88;4977262;28;46429;-61
2022/01/24 06:25:10;;;;;;;;;44.25;32.75;;;;;1.68;69.18;102364.88;4977346;28;45318;-61
2022/01/24 06:27:35;;;;;;;;;52.25;31.75;;;;;1.67;69.25;102371.81;4977628;28;45425;-61
2022/01/24 06:30:01;;;;;;;;;43.00;37.25;;;;;1.62;69.36;102371.88;4976863;28;57466;-62
2022/01/24 06:32:26;;;;;;;;;29.00;26.25;;;;;1.62;69.49;102366.72;4976543;28;67744;-61
2022/01/24 06:34:51;;;;;;;;;45.50;33.50;;;;;1.62;69.39;102360.69;4958936;28;66699;-62
2022/01/24 06:37:17;;;;;;;;;58.50;35.75;;;;;1.62;69.72;102363.28;4977461;28;45457;-61
2022/01/24 06:39:42;;;;;;;;;44.25;32.50;;;;;1.61;69.44;102365.00;4976370;28;57825;-61
2022/01/24 06:42:12;;;;;;;;;37.00;29.75;;;;;1.60;69.51;102368.47;4976363;28;66938;-62
2022/01/24 06:44:38;;;;;;;;;46.25;33.25;;;;;1.61;69.47;102359.81;4959387;28;45900;-63
2022/01/24 06:47:04;;;;;;;;;45.75;35.50;;;;;1.60;69.58;102363.28;4977140;28;45241;-62
2022/01/24 06:49:29;;;;;;;;;40.50;33.50;;;;;1.59;69.58;102364.19;4976407;28;46175;-61
2022/01/24 06:51:54;;;;;;;;;48.50;31.25;;;;;1.58;69.64;102359.91;4975688;28;60980;-61
2022/01/24 06:54:20;;;;;;;;;37.75;32.00;;;;;1.56;69.59;102369.47;4976128;28;70077;-61
2022/01/24 06:56:45;;;;;;;;;49.50;34.00;;;;;1.55;69.48;102370.34;4958796;28;67350;-62
2022/01/24 06:59:10;;;;;;;;;49.50;40.00;;;;;1.54;69.71;102371.22;4976437;28;62715;-61
2022/01/24 07:01:36;;;;;;;;;43.75;38.25;;;;;1.52;69.72;102372.13;4976091;28;70524;-61
2022/01/24 07:04:03;;;;;;;;;44.25;35.50;;;;;1.50;70.04;102372.16;4975971;28;70006;-61
2022/01/24 07:06:28;;;;;;;;;38.00;32.75;;;;;1.49;69.79;102370.47;4976820;28;45307;-63
2022/01/24 07:08:54;;;;;;;;;41.00;31.25;;;;;1.48;69.75;102373.94;4975933;28;67215;-63
2022/01/24 07:11:19;;;;;;;;;37.00;30.75;;;;;1.47;70.14;102377.41;4976635;28;45253;-61
2022/01/24 07:13:45;;;;;;;;;39.75;32.50;;;;;1.46;70.13;102379.13;4942435;28;62152;-63
2022/01/24 07:16:12;;;;;;;;;44.00;32.75;;;;;1.48;70.15;102379.13;4976650;28;45477;-62
2022/01/24 07:21:21;;;;;;;;;39.50;30.00;;;;;1.47;70.29;102377.41;4976501;28;45528;-60
2022/01/24 07:23:46;;;;;;;;;40.25;34.50;;;;;1.47;70.10;102374.81;4959090;28;45544;-61
2022/01/24 07:26:12;;;;;;;;;41.00;31.00;;;;;1.46;70.25;102373.94;4957791;28;68558;-61
2022/01/24 07:28:37;;;;;;;;;39.00;31.50;;;;;1.47;69.95;102377.41;4976103;28;45495;-61
2022/01/24 07:31:03;;;;;;;;;41.75;32.50;;;;;1.47;70.39;102374.81;4976121;28;49537;-61
2022/01/24 07:33:29;;;;;;;;;46.00;30.75;;;;;1.45;70.19;102367.06;4975991;28;45350;-61
2022/01/24 07:35:54;;;;;;;;;45.75;31.75;;;;;1.44;70.12;102374.88;4976357;28;45362;-61
2022/01/24 07:38:19;;;;;;;;;34.25;20.25;;;;;1.42;70.14;102374.06;4975805;28;63688;-62
2022/01/24 07:40:48;;;;;;;;;47.75;33.75;;;;;1.43;70.44;102375.75;4975719;28;62271;-63
2022/01/24 07:43:13;;;;;;;;;37.75;29.50;;;;;1.42;70.32;102369.72;4976581;28;45806;-61
2022/01/24 07:45:40;;;;;;;;;38.50;32.50;;;;;1.43;70.20;102374.00;4976547;28;45371;-61
2022/01/24 07:48:06;;;;;;;;;40.50;33.25;;;;;1.45;70.14;102374.00;4958948;28;45543;-62
2022/01/24 07:50:31;;;;;;;;;51.75;36.75;;;;;1.44;70.29;102377.47;4958789;28;45460;-62
2022/01/24 07:52:59;;;;;;;;;39.50;33.00;;;;;1.44;70.33;102372.28;4961655;28;45509;-61
2022/01/24 07:55:24;;;;;;;;;39.50;33.75;;;;;1.45;70.50;102376.59;4962626;28;45211;-62
2022/01/24 07:57:50;;;;;;;;;45.50;31.25;;;;;1.46;70.24;102373.13;4962158;28;45414;-61
2022/01/24 08:00:15;;;;;;;;;44.50;35.00;;;;;1.49;70.44;102373.06;4961092;28;71153;-61
2022/01/24 08:02:41;;;;;;;;;38.75;35.25;;;;;1.50;70.44;102373.91;4978505;28;65944;-62
2022/01/24 08:05:07;;;;;;;;;34.25;26.50;;;;;1.52;70.41;102380.75;4962001;28;45387;-62
2022/01/24 08:07:32;;;;;;;;;49.25;35.75;;;;;1.54;70.58;102386.78;4978936;28;45579;-61
2022/01/24 08:09:58;;;;;;;;;33.25;23.75;;;;;1.57;70.21;102380.66;4978420;28;70930;-62
2022/01/24 08:12:24;;;;;;;;;32.75;27.75;;;;;1.58;70.25;102380.63;4978612;28;70824;-63
2022/01/24 08:14:49;;;;;;;;;42.75;28.50;;;;;1.60;70.41;102386.63;4979624;28;45438;-62
2022/01/24 08:17:15;;;;;;;;;37.50;32.25;;;;;1.61;70.65;102384.91;4945731;28;45535;-61
2022/01/24 08:19:40;;;;;;;;;43.50;34.75;;;;;1.64;70.76;102379.66;4978765;28;64989;-60
2022/01/24 08:22:05;;;;;;;;;38.00;28.00;;;;;1.65;70.84;102385.66;4978513;28;68143;-61
2022/01/24 08:24:31;;;;;;;;;47.00;32.00;;;;;1.68;70.64;102383.88;4979839;28;45459;-61
2022/01/24 08:27:05;;;;;;;;;48.25;39.00;;;;;1.71;70.82;102386.41;4979645;28;45369;-63
2022/01/24 08:29:43;;;;;;;;;40.50;32.75;;;;;1.77;70.73;102390.59;4948037;28;46755;-63
2022/01/24 08:32:09;;;;;;;;;42.25;31.25;;;;;1.80;71.09;102398.31;4947180;28;45867;-63
2022/01/24 08:34:34;;;;;;;;;42.00;30.25;;;;;1.83;71.06;102390.47;4961832;28;45296;-62
2022/01/24 08:37:12;;;;;;;;;46.25;34.50;;;;;1.89;70.81;102398.13;4960839;28;45382;-62
2022/01/24 08:39:45;;;;;;;;;42.50;36.00;;;;;1.95;70.91;102393.69;4946119;28;45728;-65
2022/01/24 08:42:34;;;;;;;;;48.50;36.25;;;;;1.99;71.08;102395.31;4978986;28;45373;-63
2022/01/24 08:47:47;;;;;;;;;58.50;42.25;;;;;2.07;71.13;102396.84;4946969;28;45458;-63
2022/01/24 08:50:12;;;;;;;;;59.50;40.50;;;;;2.17;70.78;102407.84;4961576;28;46211;-61
2022/01/24 08:52:41;;;;;;;;;58.25;41.25;;;;;2.24;70.77;102411.19;4977634;28;67280;-62
2022/01/24 08:55:15;;;;;;;;;45.00;40.25;;;;;2.29;70.68;102398.09;4979029;28;45431;-64
2022/01/24 08:57:44;;;;;;;;;54.25;38.75;;;;;2.39;70.76;102409.97;4961782;28;45415;-63
2022/01/24 09:00:10;;;;;;;;;51.00;36.50;;;;;2.45;70.60;102406.34;4978697;28;46348;-63
2022/01/24 09:02:38;;;;;;;;;48.50;35.75;;;;;2.52;70.65;102401.00;4961470;28;45583;-63
2022/01/24 09:05:11;;;;;;;;;51.75;41.50;;;;;2.61;70.63;102412.03;4978830;28;50455;-62
2022/01/24 09:07:39;;;;;;;;;47.50;36.75;;;;;2.69;70.18;102415.28;4979229;28;45412;-63
2022/01/24 09:10:05;;;;;;;;;46.00;36.25;;;;;2.77;70.23;102415.94;4961963;28;46330;-64
2022/01/24 09:12:42;;;;;;;;;51.75;36.00;;;;;2.85;70.01;102425.28;4961490;28;45719;-65
2022/01/24 09:15:08;;;;;;;;;43.75;36.25;;;;;2.93;70.04;102424.19;4961764;28;45176;-62
2022/01/24 09:17:34;;;;;;;;;45.50;38.25;;;;;3.01;69.86;102413.63;4977683;28;45584;-63
2022/01/24 09:19:59;;;;;;;;;42.75;34.50;;;;;3.10;69.73;102418.56;4944607;28;47362;-63
2022/01/24 09:22:25;;;;;;;;;47.75;37.00;;;;;3.19;69.42;102414.88;4977643;28;69365;-62
2022/01/24 09:24:51;;;;;;;;;48.25;40.25;;;;;3.29;68.95;102423.25;4961170;28;45402;-64
2022/01/24 09:27:16;;;;;;;;;45.75;36.75;;;;;3.41;68.76;102420.31;4977171;28;67696;-62
2022/01/24 09:29:49;;;;;;;;;49.75;35.25;;;;;3.57;68.70;102414.69;4978340;28;46043;-63
2022/01/24 09:32:14;;;;;;;;;51.25;39.75;;;;;3.76;68.37;102417.59;4978055;28;66178;-61
2022/01/24 09:34:43;;;;;;;;;42.50;37.25;;;;;3.98;68.31;102412.63;4978116;28;57937;-62
2022/01/24 09:37:25;;;;;;;;;47.75;37.50;;;;;4.26;67.57;102411.75;4943256;28;45433;-63
2022/01/24 09:39:53;;;;;;;;;45.00;37.00;;;;;4.56;67.24;102408.19;4962885;28;46362;-63
2022/01/24 09:42:26;;;;;;;;;53.50;39.25;;;;;4.84;66.75;102402.91;4945114;28;45458;-61
2022/01/24 09:44:51;;;;;;;;;46.00;35.50;;;;;5.14;66.01;102407.13;4929197;28;45366;-64
2022/01/24 09:47:17;;;;;;;;;40.00;32.00;;;;;5.39;65.29;102404.47;4977210;28;68262;-63
2022/01/24 09:49:43;;;;;;;;;51.75;37.00;;;;;5.68;64.91;102406.91;4977382;28;71267;-65
2022/01/24 09:52:18;;;;;;;;;42.50;36.00;;;;;5.95;64.45;102423.25;4977719;28;45538;-62
2022/01/24 09:54:55;;;;;;;;;41.00;36.25;;;;;6.21;63.42;102419.66;4960963;28;45322;-61
2022/01/24 09:57:20;;;;;;;;;47.75;38.25;;;;;6.47;63.05;102419.53;4960596;28;45345;-63
2022/01/24 09:59:46;;;;;;;;;33.75;26.00;;;;;6.72;62.31;102419.38;4959512;28;73884;-62
2022/01/24 10:02:25;;;;;;;;;46.75;32.25;;;;;6.99;61.50;102416.50;4978169;28;45373;-63
2022/01/24 10:04:51;;;;;;;;;56.25;39.00;;;;;7.22;60.84;102409.41;4960530;28;45366;-64
2022/01/24 10:07:16;;;;;;;;;46.00;36.25;;;;;7.42;60.11;102406.75;4977865;28;45446;-64
2022/01/24 10:09:51;;;;;;;;;57.50;40.25;;;;;7.66;59.85;102405.72;4976516;28;72991;-63
2022/01/24 10:17:49;;;;;;;;;49.00;38.75;;;;;8.39;57.97;102412.75;4977789;28;45301;-63
2022/01/24 10:20:25;;;;;;;;;59.50;46.75;;;;;8.61;57.45;102409.94;4958907;28;73302;-63
2022/01/24 10:23:03;;;;;;;;;51.00;40.50;;;;;8.81;56.95;102410.72;4977591;28;45406;-62
2022/01/24 10:25:29;;;;;;;;;38.25;33.00;;;;;8.93;55.47;102410.09;4960105;28;45414;-63
2022/01/24 10:28:02;;;;;;;;;37.00;31.50;;;;;8.98;55.71;102407.22;4977724;28;45505;-63
2022/01/24 10:30:27;;;;;;;;;31.50;23.25;;;;;8.99;54.61;102408.91;4977428;28;45303;-63
2022/01/24 10:32:55;;;;;;;;;37.50;33.00;;;;;8.95;54.74;102408.25;4977423;28;45291;-64
2022/01/24 10:35:27;;;;;;;;;41.25;33.75;;;;;8.95;54.50;102408.25;4960433;28;45310;-63
2022/01/24 10:38:42;;;;;;;;;36.50;33.00;;;;;8.98;54.56;102408.09;4977024;28;45462;-64
2022/01/24 10:41:22;;;;;;;;;36.50;30.75;;;;;8.99;54.31;102398.44;4919908;28;46567;-64
2022/01/24 10:43:48;;;;;;;;;48.25;35.75;;;;;9.11;53.95;102396.94;4921554;28;45374;-63
2022/01/24 10:46:13;;;;;;;;;48.00;36.00;;;;;9.31;54.04;102398.50;4945434;28;45354;-64
2022/01/24 10:48:43;;;;;;;;;50.75;38.75;;;;;9.49;53.42;102394.91;4977072;28;45326;-64
2022/01/24 10:51:15;;;;;;;;;42.75;33.25;;;;;9.69;53.09;102403.47;4977272;28;46296;-62
2022/01/24 10:53:48;;;;;;;;;40.00;31.25;;;;;9.91;53.00;102386.50;4976925;28;45367;-63
2022/01/24 10:56:32;;;;;;;;;45.25;34.75;;;;;10.18;52.63;102388.53;4976662;28;45330;-63
2022/01/24 10:59:10;;;;;;;;;49.25;40.25;;;;;10.39;51.71;102389.09;4976876;28;45592;-64
2022/01/24 11:01:35;;;;;;;;;36.00;32.75;;;;;10.51;51.21;102384.91;4976721;28;46356;-63
2022/01/24 11:04:07;;;;;;;;;40.50;35.00;;;;;10.58;51.00;102393.28;4976470;28;58731;-64
2022/01/24 11:06:34;;;;;;;;;36.00;32.50;;;;;10.60;50.78;102387.00;4959641;28;45290;-63
2022/01/24 11:09:32;;;;;;;;;40.50;32.75;;;;;10.56;50.26;102388.13;4977021;28;45320;-63
2022/01/24 11:12:00;;;;;;;;;37.00;33.00;;;;;10.46;50.31;102382.56;4948446;28;46438;-63
2022/01/24 11:14:27;;;;;;;;;35.50;31.50;;;;;10.41;50.35;102386.38;4976807;28;45761;-62
2022/01/24 11:16:53;;;;;;;;;45.25;33.75;;;;;10.35;50.65;102375.25;4959278;28;45406;-61
2022/01/24 11:19:30;;;;;;;;;47.75;35.00;;;;;10.33;50.41;102378.91;4959838;28;45543;-63
2022/01/24 11:21:57;;;;;;;;;36.25;32.50;;;;;10.25;50.32;102374.94;4960216;28;47072;-62
2022/01/24 11:24:30;;;;;;;;;39.00;34.50;;;;;10.08;49.98;102372.44;4959365;28;45267;-62
2022/01/24 11:26:56;;;;;;;;;33.50;31.00;;;;;9.91;50.40;102370.75;4961886;28;45288;-65
2022/01/24 11:29:22;;;;;;;;;40.00;33.00;;;;;9.76;50.73;102365.47;4980208;28;45532;-63
2022/01/24 11:31:52;;;;;;;;;35.50;30.00;;;;;9.65;51.09;102366.03;4946547;28;45732;-61
2022/01/24 11:34:31;;;;;;;;;39.25;31.25;;;;;9.54;51.06;102363.16;4962744;28;45414;-62
2022/01/24 11:36:56;;;;;;;;;33.25;30.00;;;;;9.48;51.10;102360.88;4947646;28;45254;-62
2022/01/24 11:39:23;;;;;;;;;42.25;35.00;;;;;9.46;51.18;102366.19;4979650;28;60619;-61
2022/01/24 11:41:49;;;;;;;;;41.75;33.75;;;;;9.44;51.48;102354.94;4962592;28;45461;-63
2022/01/24 11:44:17;;;;;;;;;44.25;34.00;;;;;9.42;51.11;102353.34;4980102;28;45461;-62
2022/01/24 11:46:52;;;;;;;;;34.25;31.50;;;;;9.41;51.18;102356.91;4947251;28;45365;-63
2022/01/24 11:49:34;;;;;;;;;37.75;33.50;;;;;9.40;51.24;102350.78;4979940;28;45259;-62
2022/01/24 11:52:11;;;;;;;;;40.25;33.00;;;;;9.40;51.23;102356.03;4979469;28;46447;-63
2022/01/24 11:57:34;;;;;;;;;40.25;35.75;;;;;9.39;51.65;102356.97;4979653;28;45323;-62
2022/01/24 12:00:11;;;;;;;;;46.00;35.75;;;;;9.40;51.24;102353.41;4959416;28;45454;-61
2022/01/24 12:02:37;;;;;;;;;43.00;33.75;;;;;9.39;51.32;102356.13;4979686;28;45526;-63
2022/01/24 12:05:11;;;;;;;;;39.33;34.33;;;;;9.37;51.48;102350.13;4979686;28;45215;-63
2022/01/24 12:07:53;;;;;;;;;41.00;35.00;;;;;9.33;51.68;102355.53;4978472;28;45472;-61
2022/01/24 12:10:26;;;;;;;;;43.00;34.00;;;;;9.33;51.67;102352.91;4979587;28;45405;-63
2022/01/24 12:12:55;;;;;;;;;44.75;32.50;;;;;9.30;51.59;102350.44;4979089;28;46438;-62
2022/01/24 12:15:36;;;;;;;;;38.50;28.25;;;;;9.29;51.77;102346.13;4978102;28;45915;-62
2022/01/24 12:18:02;;;;;;;;;39.25;33.75;;;;;9.31;51.67;102338.16;4979443;28;45451;-63
2022/01/24 12:20:30;;;;;;;;;36.00;31.50;;;;;9.31;51.68;102339.03;4962080;28;45437;-61
2022/01/24 12:22:56;;;;;;;;;38.50;32.50;;;;;9.30;51.72;102337.34;4979265;28;46177;-64
2022/01/24 12:25:58;;;;;;;;;44.50;34.25;;;;;9.27;51.31;102331.44;4978890;28;45318;-61
2022/01/24 12:28:29;;;;;;;;;34.75;32.50;;;;;9.22;51.58;102334.28;4979114;28;45266;-61
2022/01/24 12:31:00;;;;;;;;;37.00;28.25;;;;;9.26;51.39;102335.81;4979203;28;45525;-64
2022/01/24 12:33:36;;;;;;;;;32.75;30.50;;;;;9.32;51.59;102326.75;4978635;28;46322;-63
2022/01/24 12:36:05;;;;;;;;;38.00;34.00;;;;;9.37;51.49;102340.47;4978735;28;45795;-64
2022/01/24 12:38:40;;;;;;;;;43.00;34.75;;;;;9.44;51.54;102339.19;4961349;28;45518;-62
2022/01/24 12:41:31;;;;;;;;;36.50;33.00;;;;;9.45;51.04;102332.19;4961637;28;45516;-65
2022/01/24 12:44:10;;;;;;;;;36.00;32.50;;;;;9.45;51.13;102338.28;4978737;28;46105;-61
2022/01/24 12:46:36;;;;;;;;;41.25;33.50;;;;;9.43;51.22;102337.50;4961297;28;45870;-62
2022/01/24 12:49:03;;;;;;;;;45.50;34.00;;;;;9.43;51.19;102332.25;4978268;28;61780;-63
2022/01/24 12:51:29;;;;;;;;;37.50;33.25;;;;;9.42;51.11;102332.34;4978897;28;45662;-64
2022/01/24 12:53:55;;;;;;;;;32.50;30.00;;;;;9.40;51.32;102331.59;4961030;28;48364;-62
2022/01/24 12:56:30;;;;;;;;;37.75;33.75;;;;;9.38;50.97;102336.06;4978751;28;45397;-64
2022/01/24 12:58:55;;;;;;;;;37.50;31.75;;;;;9.35;51.19;102330.06;4978905;28;45299;-62
2022/01/24 13:01:20;;;;;;;;;32.00;28.00;;;;;9.35;50.90;102332.69;4978764;28;49468;-64
2022/01/24 13:03:55;;;;;;;;;41.67;29.67;;;;;9.30;50.94;102324.22;4978682;28;45243;-62
2022/01/24 13:06:21;;;;;;;;;30.00;27.75;;;;;9.29;51.16;102322.53;4978650;28;45834;-64
2022/01/24 13:08:53;;;;;;;;;31.00;26.75;;;;;9.32;51.31;102321.50;4978840;28;45446;-62
2022/01/24 13:11:18;;;;;;;;;36.25;31.50;;;;;9.41;50.94;102320.16;4961200;28;45657;-63
2022/01/24 13:14:29;;;;;;;;;38.00;29.75;;;;;9.53;50.92;102323.88;4978398;28;45468;-62
2022/01/24 13:22:39;;;;;;;;;42.25;34.25;;;;;9.94;49.96;102305.81;4950058;28;45432;-62
2022/01/24 13:25:06;;;;;;;;;34.00;27.00;;;;;10.04;49.84;102307.91;4962263;28;45420;-63